Time;durP1;ratioP1;P1;durP2;ratioP2;P2;SDS_P1;SDS_P2;PMS_P1;PMS_P2;Temp;Humidity;BMP_temperature;BMP_pressure;BME280_temperature;BME280_humidity;BME280_pressure;Samples;Min_cycle;Max_cycle;Signal;HPM_P1;HPM_P2
2023/06/09 00:00:37;;;;;;;5.73;3.23;;;;;;;20.23;55.84;101352.69;5186247;28;20037;-67
2023/06/09 00:03:08;;;;;;;8.60;3.67;;;;;;;20.14;56.34;101359.91;5190752;28;20033;-66
2023/06/09 00:05:40;;;;;;;7.23;3.40;;;;;;;20.05;56.55;101355.69;5190630;28;20030;-66
2023/06/09 00:08:11;;;;;;;7.47;3.90;;;;;;;20.12;56.49;101356.63;5191590;28;20029;-66
2023/06/09 00:10:43;;;;;;;12.43;4.70;;;;;;;19.95;56.99;101341.78;5188723;28;20364;-68
2023/06/09 00:13:15;;;;;;;6.80;3.47;;;;;;;19.88;57.26;101349.66;5191687;28;20026;-67
2023/06/09 00:15:47;;;;;;;5.55;3.30;;;;;;;19.98;56.68;101353.91;5190833;28;20385;-66
2023/06/09 00:18:18;;;;;;;8.73;3.83;;;;;;;19.99;56.68;101359.06;5191531;28;20035;-68
2023/06/09 00:20:51;;;;;;;8.27;4.03;;;;;;;19.89;56.93;101348.69;5191638;28;20497;-66
2023/06/09 00:23:23;;;;;;;10.90;4.72;;;;;;;19.91;57.14;101351.16;5192105;28;20414;-68
2023/06/09 00:25:54;;;;;;;7.53;3.60;;;;;;;19.83;56.98;101346.72;5191223;28;20677;-66
2023/06/09 00:28:26;;;;;;;7.77;3.73;;;;;;;19.73;56.97;101343.47;5189664;28;20105;-68
2023/06/09 00:30:57;;;;;;;9.70;3.63;;;;;;;19.79;56.84;101345.44;5190121;28;20026;-68
2023/06/09 00:33:28;;;;;;;9.98;4.03;;;;;;;19.76;57.35;101340.47;5191995;28;20037;-67
2023/06/09 00:36:00;;;;;;;8.07;3.97;;;;;;;19.72;56.52;101341.00;5192061;28;20038;-66
2023/06/09 00:38:31;;;;;;;6.03;3.80;;;;;;;19.69;56.44;101343.00;5188886;28;20052;-67
2023/06/09 00:41:02;;;;;;;8.80;3.70;;;;;;;19.68;56.19;101343.19;5190121;28;20034;-66
2023/06/09 00:43:33;;;;;;;7.37;4.17;;;;;;;19.66;55.98;101346.03;5190662;28;20045;-67
2023/06/09 00:46:06;;;;;;;9.73;3.90;;;;;;;19.57;56.39;101347.03;5189992;28;20035;-66
2023/06/09 00:48:37;;;;;;;7.82;3.58;;;;;;;19.58;56.97;101340.72;5191853;28;20051;-66
2023/06/09 00:51:09;;;;;;;7.20;3.58;;;;;;;19.58;55.90;101342.56;5191144;28;20037;-66
2023/06/09 00:53:40;;;;;;;6.83;3.67;;;;;;;19.49;56.89;101344.44;5191320;28;20502;-67
2023/06/09 00:56:12;;;;;;;8.25;3.60;;;;;;;19.44;56.66;101337.00;5189596;28;20030;-68
2023/06/09 00:58:44;;;;;;;9.87;4.17;;;;;;;19.37;56.61;101340.53;5190748;28;20677;-66
2023/06/09 01:01:15;;;;;;;7.87;3.57;;;;;;;19.32;57.08;101342.88;5185756;28;20479;-68
2023/06/09 01:03:46;;;;;;;7.07;4.00;;;;;;;19.34;56.99;101338.22;5189055;28;20567;-66
2023/06/09 01:06:30;;;;;;;7.20;3.25;;;;;;;19.39;56.98;101341.19;5192186;28;20447;-67
2023/06/09 01:09:20;;;;;;;9.63;3.88;;;;;;;19.48;56.44;101331.34;5190383;28;20030;-67
2023/06/09 01:12:16;;;;;;;7.68;4.10;;;;;;;19.48;56.06;101328.69;5190109;28;20023;-66
2023/06/09 01:15:06;;;;;;;11.60;3.70;;;;;;;19.33;56.88;101340.06;5191429;28;20026;-66
2023/06/09 01:17:42;;;;;;;8.45;4.32;;;;;;;19.14;57.29;101325.41;5189060;28;20057;-66
2023/06/09 01:20:15;;;;;;;8.43;3.78;;;;;;;19.08;57.91;101326.09;5187615;28;20026;-67
2023/06/09 01:23:08;;;;;;;11.20;4.20;;;;;;;19.09;57.73;101317.13;5188984;28;20407;-66
2023/06/09 01:25:43;;;;;;;7.82;3.50;;;;;;;19.02;57.72;101323.31;5190979;28;20065;-66
2023/06/09 01:28:16;;;;;;;7.60;4.13;;;;;;;19.01;57.90;101325.13;5190430;28;20026;-66
2023/06/09 01:30:51;;;;;;;9.05;4.55;;;;;;;18.92;57.61;101318.22;5187919;28;20070;-66
2023/06/09 01:33:25;;;;;;;7.18;3.72;;;;;;;19.00;57.99;101322.66;5187262;28;20117;-67
2023/06/09 01:35:57;;;;;;;7.70;3.83;;;;;;;18.84;58.77;101318.25;5189151;28;20476;-66
2023/06/09 01:38:28;;;;;;;8.05;4.10;;;;;;;18.83;58.38;101321.91;5184979;28;20114;-66
2023/06/09 01:41:00;;;;;;;5.95;3.55;;;;;;;18.89;58.25;101315.91;5190326;28;20031;-66
2023/06/09 01:43:31;;;;;;;8.67;4.10;;;;;;;18.83;58.66;101316.59;5187917;28;20049;-66
2023/06/09 01:46:02;;;;;;;7.70;4.13;;;;;;;18.75;58.60;101320.09;5189749;28;20487;-66
2023/06/09 01:48:52;;;;;;;6.75;4.10;;;;;;;19.01;58.25;101316.34;5190894;28;20105;-66
2023/06/09 01:51:48;;;;;;;10.85;4.20;;;;;;;18.78;59.39;101313.63;5188327;28;20053;-66
2023/06/09 01:54:23;;;;;;;9.50;4.25;;;;;;;18.73;59.23;101318.63;5189852;28;20058;-66
2023/06/09 01:56:58;;;;;;;6.55;3.97;;;;;;;18.68;59.75;101309.31;5188270;28;20046;-66
2023/06/09 01:59:44;;;;;;;8.57;4.45;;;;;;;18.58;60.06;101316.66;5189787;28;20057;-66
2023/06/09 02:02:19;;;;;;;7.10;4.20;;;;;;;18.61;59.79;101310.19;5189044;28;20034;-66
2023/06/09 02:04:52;;;;;;;8.27;4.05;;;;;;;18.46;60.39;101315.38;5189482;28;20061;-67
2023/06/09 02:07:25;;;;;;;7.93;4.00;;;;;;;18.42;60.54;101314.88;5186719;28;20384;-67
2023/06/09 02:09:56;;;;;;;8.27;4.38;;;;;;;18.42;60.75;101316.72;5189262;28;20022;-67
2023/06/09 02:12:32;;;;;;;8.43;4.32;;;;;;;18.47;60.31;101306.41;5190611;28;20420;-66
2023/06/09 02:15:05;;;;;;;8.20;4.85;;;;;;;18.30;61.16;101302.97;5190305;28;20480;-66
2023/06/09 02:17:36;;;;;;;7.30;3.97;;;;;;;18.29;61.32;101306.59;5187773;28;20050;-66
2023/06/09 02:20:09;;;;;;;10.00;4.72;;;;;;;18.30;61.58;101288.91;5189682;28;20122;-66
2023/06/09 02:22:40;;;;;;;5.85;3.65;;;;;;;18.24;61.65;101296.50;5187461;28;20034;-66
2023/06/09 02:25:12;;;;;;;8.52;4.40;;;;;;;18.30;61.19;101296.84;5189541;28;20328;-67
2023/06/09 02:27:43;;;;;;;11.75;4.45;;;;;;;18.26;61.88;101299.00;5189160;28;20030;-66
2023/06/09 02:30:14;;;;;;;13.13;4.53;;;;;;;18.21;62.17;101294.19;5186290;28;20037;-66
2023/06/09 02:32:46;;;;;;;8.80;4.20;;;;;;;18.24;62.10;101301.81;5186390;28;20142;-67
2023/06/09 02:35:18;;;;;;;7.40;4.23;;;;;;;18.15;62.33;101299.38;5172354;28;20034;-67
2023/06/09 02:37:49;;;;;;;10.48;4.55;;;;;;;18.10;62.57;101291.06;5188541;28;20194;-66
2023/06/09 02:40:21;;;;;;;7.80;4.20;;;;;;;18.09;62.99;101298.19;5186854;28;20058;-66
2023/06/09 02:42:52;;;;;;;7.68;4.55;;;;;;;18.02;63.14;101286.59;5189978;28;20027;-66
2023/06/09 02:45:24;;;;;;;9.93;4.72;;;;;;;18.01;62.93;101298.22;5190005;28;20057;-68
2023/06/09 02:47:56;;;;;;;8.70;4.50;;;;;;;18.01;63.50;101297.41;5188191;28;20019;-66
2023/06/09 02:50:27;;;;;;;8.80;4.07;;;;;;;17.90;63.78;101294.09;5185591;28;20506;-66
2023/06/09 02:52:58;;;;;;;8.70;4.75;;;;;;;17.96;64.45;101292.59;5189293;28;20030;-67
2023/06/09 02:55:32;;;;;;;13.10;4.28;;;;;;;17.88;64.19;101295.22;5188511;28;20400;-65
2023/06/09 02:58:03;;;;;;;9.80;4.80;;;;;;;17.73;65.12;101298.53;5186493;28;20034;-66
2023/06/09 03:00:34;;;;;;;9.35;5.07;;;;;;;17.75;65.29;101293.91;5188764;28;20041;-66
2023/06/09 03:03:06;;;;;;;9.50;4.60;;;;;;;17.82;64.42;101290.63;5186287;28;20034;-66
2023/06/09 03:05:40;;;;;;;11.02;4.50;;;;;;;17.71;65.79;101292.56;5187743;28;20031;-67
2023/06/09 03:08:11;;;;;;;7.10;4.03;;;;;;;17.68;66.26;101294.72;5188083;28;20034;-67
2023/06/09 03:10:42;;;;;;;9.70;4.40;;;;;;;17.58;66.81;101288.75;5189007;28;20542;-68
2023/06/09 03:13:14;;;;;;;10.25;5.07;;;;;;;17.62;66.56;101296.22;5188336;28;20424;-67
2023/06/09 03:15:46;;;;;;;8.38;4.20;;;;;;;17.65;66.07;101301.19;5189807;28;20392;-66
2023/06/09 03:18:17;;;;;;;8.68;4.72;;;;;;;17.59;67.44;101296.53;5190230;28;20040;-66
2023/06/09 03:20:50;;;;;;;11.07;4.70;;;;;;;17.51;67.95;101310.63;5190985;28;20042;-66
2023/06/09 03:23:22;;;;;;;7.40;4.18;;;;;;;17.45;67.98;101286.59;5192723;28;20034;-67
2023/06/09 03:25:53;;;;;;;11.32;4.82;;;;;;;17.55;67.86;101297.88;5193779;28;20053;-67
2023/06/09 03:28:24;;;;;;;9.57;4.68;;;;;;;17.44;68.33;101308.78;5189323;28;20066;-66
2023/06/09 03:30:55;;;;;;;9.18;4.45;;;;;;;17.43;69.24;101305.31;5193123;28;20097;-67
2023/06/09 03:33:27;;;;;;;7.82;5.18;;;;;;;17.48;68.79;101300.34;5190414;28;20026;-66
2023/06/09 03:35:58;;;;;;;9.48;4.15;;;;;;;17.44;69.25;101301.66;5190670;28;20132;-68
2023/06/09 03:38:29;;;;;;;7.97;4.55;;;;;;;17.39;69.75;101314.56;5187024;28;20084;-66
2023/06/09 03:41:02;;;;;;;9.35;5.20;;;;;;;17.45;69.46;101305.13;5192893;28;20026;-66
2023/06/09 03:43:33;;;;;;;11.50;4.22;;;;;;;17.40;69.31;101297.69;5193600;28;20023;-65
2023/06/09 03:46:04;;;;;;;10.10;4.40;;;;;;;17.38;70.66;101294.34;5188825;28;20041;-68
2023/06/09 03:48:36;;;;;;;10.55;4.75;;;;;;;17.33;71.28;101317.03;5188759;28;20133;-67
2023/06/09 03:51:07;;;;;;;10.85;4.75;;;;;;;17.35;71.21;101326.50;5192792;28;20030;-67
2023/06/09 03:53:38;;;;;;;9.20;4.63;;;;;;;17.31;71.11;101326.94;5193486;28;20046;-67
2023/06/09 03:56:09;;;;;;;8.23;4.53;;;;;;;17.28;71.25;101330.78;5190745;28;20030;-67
2023/06/09 03:58:41;;;;;;;8.10;4.75;;;;;;;17.30;71.40;101325.31;5190572;28;20026;-66
2023/06/09 04:01:12;;;;;;;8.80;5.00;;;;;;;17.27;71.56;101315.84;5189809;28;20030;-67
2023/06/09 04:03:43;;;;;;;15.07;5.38;;;;;;;17.24;71.72;101321.50;5189004;28;20328;-66
2023/06/09 04:06:15;;;;;;;12.73;5.72;;;;;;;17.26;71.61;101322.16;5191947;28;20495;-67
2023/06/09 04:08:46;;;;;;;10.15;4.97;;;;;;;17.26;71.20;101328.28;5192565;28;20232;-67
2023/06/09 04:11:17;;;;;;;14.85;5.35;;;;;;;17.30;71.36;101320.00;5192261;28;20026;-67
2023/06/09 04:13:49;;;;;;;9.05;5.25;;;;;;;17.26;72.24;101322.16;5192274;28;20895;-67
2023/06/09 04:16:20;;;;;;;7.65;4.68;;;;;;;17.34;72.02;101326.63;5192374;28;20033;-67
2023/06/09 04:18:51;;;;;;;10.63;5.32;;;;;;;17.31;71.46;101324.31;5192762;28;20061;-66
2023/06/09 04:21:22;;;;;;;9.85;5.15;;;;;;;17.33;71.49;101327.63;5185339;28;20034;-66
2023/06/09 04:23:54;;;;;;;10.45;5.03;;;;;;;17.33;71.64;101325.81;5185937;28;20027;-67
2023/06/09 04:26:25;;;;;;;9.95;5.25;;;;;;;17.31;72.25;101327.78;5189730;28;20213;-66
2023/06/09 04:28:57;;;;;;;10.70;5.38;;;;;;;17.31;72.53;101329.59;5187334;28;20031;-66
2023/06/09 04:31:33;;;;;;;14.43;5.77;;;;;;;17.37;72.23;101327.13;5190102;28;20136;-67
2023/06/09 04:34:15;;;;;;;10.80;5.72;;;;;;;17.32;72.84;101337.41;5185993;28;20281;-65
2023/06/09 04:36:47;;;;;;;9.77;5.72;;;;;;;17.36;72.61;101340.56;5192227;28;20046;-67
2023/06/09 04:39:19;;;;;;;10.55;6.20;;;;;;;17.27;73.52;101327.31;5191811;28;20026;-67
2023/06/09 04:41:53;;;;;;;10.85;5.88;;;;;;;17.22;74.02;101332.22;5191765;28;20030;-67
2023/06/09 04:44:24;;;;;;;12.38;6.07;;;;;;;17.28;74.58;101330.78;5193540;28;20030;-67
2023/06/09 04:46:55;;;;;;;9.18;5.47;;;;;;;17.25;74.32;101333.75;5190333;28;20038;-66
2023/06/09 04:49:30;;;;;;;15.03;6.53;;;;;;;17.35;73.98;101333.59;5191844;28;20026;-66
2023/06/09 04:52:02;;;;;;;11.15;6.82;;;;;;;17.33;74.31;101338.22;5193719;28;20745;-66
2023/06/09 04:54:34;;;;;;;13.98;7.55;;;;;;;17.33;74.83;101340.88;5193452;28;20030;-66
2023/06/09 04:57:08;;;;;;;10.90;5.53;;;;;;;17.38;74.83;101331.44;5189424;28;20041;-66
2023/06/09 04:59:40;;;;;;;11.35;6.65;;;;;;;17.29;74.94;101329.78;5188062;28;20042;-68
2023/06/09 05:02:12;;;;;;;11.88;6.38;;;;;;;17.39;74.92;101343.72;5162645;28;20073;-67
2023/06/09 05:04:43;;;;;;;12.60;6.63;;;;;;;17.33;75.25;101332.94;5188111;28;20022;-66
2023/06/09 05:07:14;;;;;;;12.18;5.70;;;;;;;17.47;75.43;101335.78;5191522;28;20119;-67
2023/06/09 05:09:46;;;;;;;14.45;6.55;;;;;;;17.53;75.13;101344.88;5186199;28;20298;-67
2023/06/09 05:12:17;;;;;;;9.60;6.45;;;;;;;17.57;74.89;101334.78;5189047;28;20046;-67
2023/06/09 05:14:48;;;;;;;10.40;5.95;;;;;;;17.55;74.87;101348.22;5191259;28;20030;-66
2023/06/09 05:17:20;;;;;;;11.60;5.90;;;;;;;17.60;74.50;101342.41;5189797;28;20022;-67
2023/06/09 05:19:51;;;;;;;17.25;7.40;;;;;;;17.56;75.38;101333.97;5183157;28;20034;-67
2023/06/09 05:22:23;;;;;;;15.20;6.50;;;;;;;17.71;75.00;101342.09;5189809;28;20408;-66
2023/06/09 05:24:54;;;;;;;10.88;6.10;;;;;;;17.74;75.05;101347.91;5191174;28;20487;-67
2023/06/09 05:27:25;;;;;;;14.43;7.32;;;;;;;17.83;74.65;101353.22;5189149;28;20677;-66
2023/06/09 05:29:57;;;;;;;11.30;6.45;;;;;;;17.88;73.99;101349.09;5184771;28;20468;-67
2023/06/09 05:32:28;;;;;;;10.65;6.43;;;;;;;17.94;74.55;101343.13;5181272;28;20113;-68
2023/06/09 05:35:00;;;;;;;14.63;6.60;;;;;;;17.97;74.14;101349.91;5186888;28;20113;-67
2023/06/09 05:37:31;;;;;;;12.57;6.55;;;;;;;18.00;74.31;101346.94;5191901;28;20022;-67
2023/06/09 05:40:05;;;;;;;12.23;6.47;;;;;;;18.02;75.29;101347.59;5189751;28;20040;-66
2023/06/09 05:42:36;;;;;;;13.45;7.00;;;;;;;18.09;75.37;101350.41;5190808;28;20050;-66
2023/06/09 05:45:08;;;;;;;12.65;6.55;;;;;;;18.22;75.93;101346.25;5186532;28;20090;-66
2023/06/09 05:47:39;;;;;;;17.23;7.70;;;;;;;18.24;74.74;101359.34;5189205;28;20084;-66
2023/06/09 05:50:10;;;;;;;12.43;6.82;;;;;;;18.28;74.58;101349.22;5182507;28;20045;-67
2023/06/09 05:52:42;;;;;;;10.20;6.50;;;;;;;18.28;75.47;101347.41;5186724;28;20452;-67
2023/06/09 05:55:16;;;;;;;16.60;8.05;;;;;;;18.39;75.29;101343.56;5184068;28;20022;-67
2023/06/09 05:57:48;;;;;;;13.65;6.80;;;;;;;18.42;76.02;101345.91;5190465;28;20034;-67
2023/06/09 06:00:20;;;;;;;10.77;6.22;;;;;;;18.51;74.89;101347.50;5183866;28;20789;-66
2023/06/09 06:02:53;;;;;;;14.30;6.68;;;;;;;18.61;75.02;101344.69;5189495;28;20034;-67
2023/06/09 06:05:25;;;;;;;14.50;7.40;;;;;;;18.68;74.78;101335.88;5188042;28;20069;-66
2023/06/09 06:07:57;;;;;;;15.47;7.77;;;;;;;18.76;74.51;101337.69;5184525;28;20173;-67
2023/06/09 06:10:28;;;;;;;12.57;7.10;;;;;;;18.91;75.19;101338.63;5187666;28;20289;-66
2023/06/09 06:13:03;;;;;;;9.07;7.03;;;;;;;19.05;73.66;101345.03;5191340;28;20534;-66
2023/06/09 06:15:34;;;;;;;13.98;7.43;;;;;;;19.11;73.62;101349.66;5187462;28;20428;-67
2023/06/09 06:18:06;;;;;;;13.63;7.95;;;;;;;19.23;73.72;101343.94;5184722;28;20031;-67
2023/06/09 06:20:37;;;;;;;13.23;6.57;;;;;;;19.37;72.82;101340.53;5182268;28;20042;-66
2023/06/09 06:23:08;;;;;;;11.57;7.23;;;;;;;19.50;73.12;101337.31;5189749;28;20109;-66
2023/06/09 06:25:41;;;;;;;12.48;7.55;;;;;;;19.56;72.06;101344.56;5184389;28;20061;-67
2023/06/09 06:28:12;;;;;;;13.25;8.30;;;;;;;19.70;72.29;101341.19;5186283;28;20415;-67
2023/06/09 06:30:43;;;;;;;13.75;7.53;;;;;;;19.85;72.41;101344.72;5187045;28;20030;-66
2023/06/09 06:33:15;;;;;;;11.70;7.47;;;;;;;20.01;72.40;101342.94;5184092;28;20030;-66
2023/06/09 06:35:46;;;;;;;12.63;8.20;;;;;;;20.08;70.42;101344.69;5186468;28;20030;-67
2023/06/09 06:38:17;;;;;;;17.35;8.25;;;;;;;20.16;69.75;101347.28;5187192;28;20061;-67
2023/06/09 06:40:50;;;;;;;13.18;7.72;;;;;;;20.33;69.63;101347.09;5186949;28;20034;-67
2023/06/09 06:43:21;;;;;;;11.05;7.60;;;;;;;20.48;69.44;101344.44;5185907;28;20477;-66
2023/06/09 06:45:52;;;;;;;13.80;8.35;;;;;;;20.62;69.57;101339.16;5189731;28;20033;-68
2023/06/09 06:48:27;;;;;;;11.80;7.50;;;;;;;20.80;67.40;101343.31;5166283;28;20117;-68
2023/06/09 06:50:58;;;;;;;13.90;8.35;;;;;;;20.83;67.49;101337.56;5176436;28;20079;-67
2023/06/09 06:53:29;;;;;;;12.48;7.40;;;;;;;20.93;66.15;101335.47;5187246;28;20042;-67
2023/06/09 06:56:01;;;;;;;14.07;8.00;;;;;;;21.03;66.40;101335.19;5185951;28;20026;-67
2023/06/09 06:58:32;;;;;;;11.10;8.27;;;;;;;21.30;66.75;101338.97;5186852;28;20037;-67
2023/06/09 07:01:04;;;;;;;12.47;7.73;;;;;;;21.37;64.99;101335.38;5182931;28;20292;-66
2023/06/09 07:03:35;;;;;;;11.27;7.40;;;;;;;21.50;65.22;101339.19;5185411;28;20595;-67
2023/06/09 07:06:08;;;;;;;12.33;8.10;;;;;;;21.57;64.10;101346.25;5187397;28;20034;-67
2023/06/09 07:08:39;;;;;;;12.85;7.82;;;;;;;21.82;63.77;101344.03;5187722;28;20030;-68
2023/06/09 07:11:11;;;;;;;12.97;7.63;;;;;;;21.91;62.48;101341.22;5187501;28;20030;-67
2023/06/09 07:13:42;;;;;;;13.17;8.10;;;;;;;22.00;61.03;101346.22;5180302;28;20065;-67
2023/06/09 07:16:13;;;;;;;12.53;8.83;;;;;;;22.09;59.95;101349.59;5184087;28;20022;-67
2023/06/09 07:18:45;;;;;;;19.13;8.03;;;;;;;22.26;61.54;101352.81;5183556;28;20053;-67
2023/06/09 07:21:16;;;;;;;15.23;8.33;;;;;;;22.45;60.00;101343.28;5181097;28;20455;-67
2023/06/09 07:23:48;;;;;;;13.70;8.10;;;;;;;22.46;58.81;101348.41;5188687;28;20368;-68
2023/06/09 07:26:19;;;;;;;12.07;8.27;;;;;;;22.67;58.51;101354.69;5179643;28;20050;-68
2023/06/09 07:28:50;;;;;;;13.97;8.37;;;;;;;22.93;58.38;101356.72;5187094;28;20030;-67
2023/06/09 07:31:22;;;;;;;14.73;8.27;;;;;;;23.00;58.49;101350.38;5185795;28;20499;-68
2023/06/09 07:33:53;;;;;;;12.40;8.23;;;;;;;23.14;57.18;101350.41;5181809;28;20037;-68
2023/06/09 07:36:25;;;;;;;13.23;7.67;;;;;;;23.20;56.98;101357.63;5184173;28;20068;-67
2023/06/09 07:38:57;;;;;;;12.57;8.73;;;;;;;23.36;55.77;101356.44;5176426;28;20049;-67
2023/06/09 07:41:29;;;;;;;14.07;7.97;;;;;;;23.51;56.21;101354.41;5175668;28;20026;-68
2023/06/09 07:44:01;;;;;;;15.07;8.45;;;;;;;23.61;54.78;101346.81;5179152;28;20412;-68
2023/06/09 07:46:32;;;;;;;12.47;7.37;;;;;;;23.68;55.78;101354.91;5180232;28;20023;-68
2023/06/09 07:49:03;;;;;;;11.10;7.60;;;;;;;23.98;54.26;101348.13;5178352;28;20053;-68
2023/06/09 07:51:36;;;;;;;12.23;7.47;;;;;;;23.99;52.23;101344.41;5183404;28;20030;-68
2023/06/09 07:54:08;;;;;;;11.77;8.00;;;;;;;24.17;53.12;101342.94;5180452;28;20073;-68
2023/06/09 07:56:39;;;;;;;20.43;7.80;;;;;;;24.35;52.45;101345.78;5169978;28;20507;-68
2023/06/09 07:59:11;;;;;;;14.17;7.13;;;;;;;24.47;53.03;101346.84;5177504;28;20033;-68
2023/06/09 08:01:43;;;;;;;12.03;7.17;;;;;;;24.70;51.34;101337.47;5184645;28;20030;-68
2023/06/09 08:04:15;;;;;;;16.30;7.28;;;;;;;24.79;50.70;101341.59;5179936;28;20051;-68
2023/06/09 08:06:47;;;;;;;11.23;8.07;;;;;;;25.08;49.58;101334.03;5187715;28;20693;-67
2023/06/09 08:09:18;;;;;;;8.77;6.80;;;;;;;25.03;48.89;101341.91;5186819;28;20061;-68
2023/06/09 08:11:49;;;;;;;12.23;7.37;;;;;;;25.27;48.76;101337.66;5182561;28;20478;-68
2023/06/09 08:14:22;;;;;;;11.33;7.57;;;;;;;25.40;48.36;101340.28;5186686;28;20476;-68
2023/06/09 08:16:53;;;;;;;10.68;7.30;;;;;;;25.38;47.10;101340.50;5185448;28;20548;-68
2023/06/09 08:19:24;;;;;;;11.20;7.60;;;;;;;25.59;47.85;101342.00;5187549;28;20038;-68
2023/06/09 08:21:57;;;;;;;10.63;6.57;;;;;;;25.63;48.02;101337.03;5191265;28;20105;-68
2023/06/09 08:24:28;;;;;;;8.00;6.22;;;;;;;25.90;46.64;101333.09;5185199;28;20037;-68
2023/06/09 08:27:00;;;;;;;8.97;6.00;;;;;;;26.09;46.51;101328.59;5180583;28;20149;-68
2023/06/09 08:29:31;;;;;;;10.67;6.53;;;;;;;26.17;45.37;101328.31;5188653;28;20022;-68
2023/06/09 08:32:02;;;;;;;9.63;5.90;;;;;;;26.50;46.08;101331.75;5186824;28;20029;-68
2023/06/09 08:34:34;;;;;;;8.10;5.73;;;;;;;26.53;44.39;101316.00;5186166;28;20060;-68
2023/06/09 08:37:05;;;;;;;7.87;5.17;;;;;;;26.64;43.73;101326.00;5183834;28;20030;-67
2023/06/09 08:39:37;;;;;;;11.90;6.17;;;;;;;26.69;44.26;101319.94;5185798;28;20030;-68
2023/06/09 08:42:18;;;;;;;9.73;5.50;;;;;;;26.99;43.75;101325.34;5185123;28;20034;-69
2023/06/09 08:44:51;;;;;;;10.32;5.90;;;;;;;27.03;42.36;101329.22;5184041;28;20042;-68
2023/06/09 08:47:24;;;;;;;9.57;5.22;;;;;;;27.04;41.68;101330.03;5183188;28;20030;-68
2023/06/09 08:49:57;;;;;;;10.63;4.95;;;;;;;27.17;42.33;101332.59;5186020;28;20121;-68
2023/06/09 08:52:30;;;;;;;7.65;5.63;;;;;;;27.39;41.34;101336.41;5184109;28;20077;-68
2023/06/09 08:55:03;;;;;;;9.68;5.40;;;;;;;27.45;41.32;101333.84;5187570;28;20104;-68
2023/06/09 08:57:35;;;;;;;7.90;5.80;;;;;;;27.51;40.94;101332.94;5178900;28;20030;-68
2023/06/09 09:00:09;;;;;;;9.97;5.73;;;;;;;27.58;41.23;101326.38;5182386;28;20054;-68
2023/06/09 09:02:41;;;;;;;7.80;5.70;;;;;;;27.59;39.61;101332.59;5183846;28;20026;-68
2023/06/09 09:05:13;;;;;;;9.80;5.78;;;;;;;27.76;39.67;101324.66;5184569;28;20081;-68
2023/06/09 09:07:45;;;;;;;8.83;5.70;;;;;;;27.68;39.98;101306.16;5185429;28;20097;-68
2023/06/09 09:10:17;;;;;;;9.70;5.80;;;;;;;27.86;40.49;101317.66;5188617;28;20040;-67
2023/06/09 09:12:50;;;;;;;7.03;5.18;;;;;;;28.03;40.03;101315.06;5181659;28;20753;-68
2023/06/09 09:15:25;;;;;;;8.13;6.32;;;;;;;28.01;39.46;101319.88;5183905;28;20022;-68
2023/06/09 09:17:56;;;;;;;8.68;5.97;;;;;;;28.17;40.09;101312.97;5184377;28;20566;-68
2023/06/09 09:20:32;;;;;;;9.63;5.50;;;;;;;28.34;39.00;101319.28;5184961;28;20042;-68
2023/06/09 09:23:04;;;;;;;9.10;5.32;;;;;;;28.35;39.08;101312.84;5185200;28;20392;-68
2023/06/09 09:25:36;;;;;;;12.15;6.55;;;;;;;28.28;39.15;101311.31;5183896;28;20058;-69
2023/06/09 09:28:12;;;;;;;8.27;5.70;;;;;;;28.85;39.48;101308.75;5179917;28;20030;-68
2023/06/09 09:30:49;;;;;;;10.88;6.05;;;;;;;28.81;39.05;101302.19;5182960;28;20034;-67
2023/06/09 09:33:21;;;;;;;8.77;6.28;;;;;;;28.95;38.75;101306.25;5186019;28;20030;-69
2023/06/09 09:35:59;;;;;;;;;;;;;;;29.71;37.23;101309.50;5183163;28;20061;-68
2023/06/09 09:38:30;;;;;;;8.80;5.88;;;;;;;29.09;37.14;101299.53;5185015;28;19962;-68
2023/06/09 09:41:03;;;;;;;8.37;5.63;;;;;;;29.32;36.88;101305.84;5184597;28;20052;-67
2023/06/09 09:43:35;;;;;;;8.30;5.78;;;;;;;29.20;36.59;101300.50;5184075;28;20023;-67
2023/06/09 09:46:07;;;;;;;9.80;5.40;;;;;;;29.40;36.60;101300.06;5183073;28;20022;-68
2023/06/09 09:48:39;;;;;;;9.60;4.88;;;;;;;29.36;36.45;101304.31;5187913;28;20053;-69
2023/06/09 09:51:11;;;;;;;9.88;6.30;;;;;;;29.45;37.35;101293.94;5185546;28;20026;-69
2023/06/09 09:53:45;;;;;;;9.37;6.03;;;;;;;29.77;37.24;101292.28;5184119;28;20031;-67
2023/06/09 09:56:21;;;;;;;7.43;5.53;;;;;;;29.69;36.51;101298.13;5181393;28;20054;-68
2023/06/09 09:58:54;;;;;;;10.85;5.20;;;;;;;29.93;34.74;101297.91;5185289;28;20650;-67
2023/06/09 10:01:26;;;;;;;7.25;5.00;;;;;;;30.00;35.21;101295.84;5183842;28;20066;-69
2023/06/09 10:03:59;;;;;;;9.23;5.50;;;;;;;30.10;34.80;101296.00;5188893;28;20026;-67
2023/06/09 10:06:32;;;;;;;7.03;5.00;;;;;;;29.92;33.55;101290.88;5182957;28;20034;-67
2023/06/09 10:09:04;;;;;;;8.48;5.80;;;;;;;30.03;33.62;101284.56;5184810;28;20042;-68
2023/06/09 10:11:37;;;;;;;9.30;5.28;;;;;;;30.07;34.14;101288.41;5180710;28;20034;-69
2023/06/09 10:14:09;;;;;;;8.48;5.00;;;;;;;30.08;34.21;101281.09;5181645;28;20064;-69
2023/06/09 10:16:41;;;;;;;9.38;5.30;;;;;;;30.07;33.83;101291.09;5182113;28;20122;-67
2023/06/09 10:19:14;;;;;;;8.73;5.18;;;;;;;30.29;33.87;101283.06;5181257;28;20030;-68
2023/06/09 10:21:46;;;;;;;7.05;4.80;;;;;;;30.24;33.63;101274.88;5182807;28;20022;-70
2023/06/09 10:24:19;;;;;;;;;;;;;;;31.17;32.74;101283.75;5184302;28;20388;-69
2023/06/09 10:26:51;;;;;;;7.47;4.97;;;;;;;30.30;32.88;101280.09;5175384;28;20024;-68
2023/06/09 10:29:25;;;;;;;6.35;4.07;;;;;;;30.50;32.85;101284.13;5182265;28;20018;-68
2023/06/09 10:31:58;;;;;;;6.28;4.38;;;;;;;30.46;32.11;101277.59;5184225;28;20018;-69
2023/06/09 10:34:32;;;;;;;7.68;4.88;;;;;;;30.58;31.62;101274.75;5182087;28;20330;-68
2023/06/09 10:37:04;;;;;;;6.57;4.78;;;;;;;30.62;31.91;101274.00;5186127;28;20041;-69
2023/06/09 10:39:52;;;;;;;7.93;5.00;;;;;;;31.00;32.03;101277.66;5186223;28;20091;-68
2023/06/09 10:43:04;;;;;;;6.57;4.57;;;;;;;31.12;31.95;101283.72;5183971;28;20344;-69
2023/06/09 10:45:50;;;;;;;7.72;4.53;;;;;;;31.12;31.65;101275.59;5172713;28;20049;-70
2023/06/09 10:48:43;;;;;;;8.98;5.05;;;;;;;31.11;31.43;101265.84;5179987;28;20019;-69
2023/06/09 10:51:27;;;;;;;8.05;5.05;;;;;;;31.17;32.11;101262.09;5182199;28;20031;-68
2023/06/09 10:54:10;;;;;;;7.95;4.60;;;;;;;31.33;31.13;101262.25;5184541;28;20029;-69
2023/06/09 10:56:46;;;;;;;6.35;4.80;;;;;;;30.86;30.31;101261.00;5181786;28;20361;-69
2023/06/09 10:59:23;;;;;;;8.50;4.53;;;;;;;31.22;30.41;101256.75;5180972;28;20870;-68
2023/06/09 11:02:01;;;;;;;9.18;4.70;;;;;;;31.41;31.39;101264.53;5178309;28;20026;-69
2023/06/09 11:04:44;;;;;;;7.85;5.55;;;;;;;31.39;30.81;101256.63;5181482;28;20063;-69
2023/06/09 11:07:29;;;;;;;7.30;4.65;;;;;;;31.59;31.31;101247.03;5183126;28;20141;-68
2023/06/09 11:10:01;;;;;;;6.22;4.38;;;;;;;31.26;29.80;101254.34;5183685;28;20026;-68
2023/06/09 11:12:46;;;;;;;5.03;4.13;;;;;;;31.31;29.89;101256.31;5184329;28;20038;-69
2023/06/09 11:15:17;;;;;;;7.88;4.68;;;;;;;31.36;29.55;101248.22;5177083;28;20129;-68
2023/06/09 11:17:51;;;;;;;4.70;4.17;;;;;;;31.37;29.15;101247.97;5184593;28;20534;-69
2023/06/09 11:20:24;;;;;;;6.65;4.10;;;;;;;31.38;29.68;101236.06;5184631;28;20026;-68
2023/06/09 11:23:03;;;;;;;6.18;4.10;;;;;;;31.83;29.68;101242.03;5181941;28;20365;-70
2023/06/09 11:25:35;;;;;;;5.43;4.60;;;;;;;31.91;29.22;101239.66;5183533;28;20050;-68
2023/06/09 11:28:06;;;;;;;9.18;5.25;;;;;;;31.69;29.42;101245.19;5182053;28;20109;-68
2023/06/09 11:31:00;;;;;;;7.00;5.10;;;;;;;32.07;30.37;101243.28;5180533;28;20034;-69
2023/06/09 11:33:46;;;;;;;8.38;5.00;;;;;;;32.05;30.66;101239.19;5185994;28;20113;-69
2023/06/09 11:36:25;;;;;;;5.60;4.88;;;;;;;31.94;30.54;101230.22;5183802;28;20084;-69
2023/06/09 11:39:03;;;;;;;7.38;5.30;;;;;;;32.05;30.91;101236.47;5184210;28;20025;-68
2023/06/09 11:41:35;;;;;;;6.45;4.90;;;;;;;31.94;30.39;101228.31;5184841;28;20045;-69
2023/06/09 11:44:06;;;;;;;;;;;;;;;32.84;29.12;101227.22;5182875;28;20030;-69
2023/06/09 11:46:38;;;;;;;6.63;4.57;;;;;;;32.11;30.20;101230.81;5184226;28;19929;-69
2023/06/09 11:49:09;;;;;;;5.63;5.03;;;;;;;32.14;29.15;101215.94;5182939;28;20055;-69